createdAt,value
2017-02-24T00:00:11.326Z,38.4
2017-02-24T00:02:43.817Z,38.4
2017-02-24T00:05:16.289Z,38.4
2017-02-24T00:07:48.770Z,38.4
2017-02-24T00:10:21.249Z,38.5
2017-02-24T00:12:54.150Z,38.4
2017-02-24T00:15:26.639Z,38.5
2017-02-24T00:17:59.127Z,38.4
2017-02-24T00:20:31.624Z,38.4
2017-02-24T00:23:04.123Z,38.4
2017-02-24T00:25:37.233Z,38.5
2017-02-24T00:28:09.724Z,38.5
2017-02-24T00:30:42.230Z,38.4
2017-02-24T00:33:14.738Z,38.4
2017-02-24T00:35:47.228Z,38.4
2017-02-24T00:38:19.726Z,38.4
2017-02-24T00:40:52.219Z,38.4
2017-02-24T00:43:24.692Z,38.4
2017-02-24T00:45:57.170Z,38.4
2017-02-24T00:48:30.069Z,38.4
2017-02-24T00:51:03.183Z,38.4
2017-02-24T00:53:35.666Z,38.5
2017-02-24T00:56:08.577Z,38.5
2017-02-24T00:58:41.057Z,38.4
2017-02-24T01:01:13.550Z,38.5
2017-02-24T01:03:46.058Z,38.4
2017-02-24T01:06:18.550Z,38.5
2017-02-24T01:08:51.033Z,38.4
2017-02-24T01:11:23.542Z,38.5
2017-02-24T01:13:56.043Z,38.4
2017-02-24T01:16:28.525Z,38.5
2017-02-24T01:19:01.005Z,38.4
2017-02-24T01:21:33.927Z,38.4
2017-02-24T01:24:06.420Z,38.4
2017-02-24T01:26:38.908Z,38.4
2017-02-24T01:29:11.826Z,38.4
2017-02-24T01:31:44.320Z,38.4
2017-02-24T01:34:16.818Z,38.4
2017-02-24T01:36:49.304Z,38.4
2017-02-24T01:39:21.800Z,38.4
2017-02-24T01:41:54.277Z,38.5
2017-02-24T01:44:27.179Z,38.4
2017-02-24T01:46:59.679Z,38.4
2017-02-24T01:49:32.595Z,38.4
2017-02-24T01:52:05.101Z,38.4
2017-02-24T01:54:37.614Z,38.4
2017-02-24T01:57:10.116Z,38.4
2017-02-24T01:59:42.613Z,38.3
2017-02-24T02:02:15.104Z,38.4
2017-02-24T02:04:47.594Z,38.4
2017-02-24T02:07:20.509Z,38.4
2017-02-24T02:09:52.982Z,38.4
2017-02-24T02:12:25.467Z,38.4
2017-02-24T02:14:57.959Z,38.4
2017-02-24T02:17:30.446Z,38.4
2017-02-24T02:20:02.921Z,38.4
2017-02-24T02:22:35.422Z,38.4
2017-02-24T02:25:07.956Z,38.4
2017-02-24T02:27:41.315Z,38.4
2017-02-24T02:30:13.834Z,38.4
2017-02-24T02:32:46.750Z,38.5
2017-02-24T02:35:20.098Z,38.5
2017-02-24T02:37:53.222Z,38.5
2017-02-24T02:40:25.709Z,38.4
2017-02-24T02:42:58.188Z,38.4
2017-02-24T02:45:31.089Z,38.4
2017-02-24T02:48:03.574Z,38.4
2017-02-24T02:50:36.073Z,38.4
2017-02-24T02:53:08.583Z,38.4
2017-02-24T02:55:41.076Z,38.5
2017-02-24T02:58:13.584Z,38.4
2017-02-24T03:00:46.070Z,38.4
2017-02-24T03:03:19.820Z,38.4
2017-02-24T03:05:53.139Z,38.4
2017-02-24T03:08:25.624Z,38.4
2017-02-24T03:10:58.146Z,38.4
2017-02-24T03:13:31.051Z,38.4
2017-02-24T03:16:03.523Z,38.4
2017-02-24T03:18:36.418Z,38.4
2017-02-24T03:21:08.920Z,38.4
2017-02-24T03:23:41.832Z,38.4
2017-02-24T03:26:14.739Z,38.4
2017-02-24T03:28:47.238Z,38.4
2017-02-24T03:31:20.171Z,38.4
2017-02-24T03:33:52.643Z,38.4
2017-02-24T03:36:25.125Z,38.3
2017-02-24T03:38:57.617Z,38.4
2017-02-24T03:41:30.116Z,38.3
2017-02-24T03:44:02.617Z,38.2
2017-02-24T03:46:35.107Z,38.2
2017-02-24T03:49:08.006Z,38.3
2017-02-24T03:51:40.928Z,38.2
2017-02-24T03:54:13.428Z,38.2
2017-02-24T03:56:45.917Z,38.3
2017-02-24T03:59:18.456Z,38.2
2017-02-24T04:01:50.975Z,38.3
2017-02-24T04:04:23.476Z,38.2
2017-02-24T04:06:56.276Z,38.1
2017-02-24T04:09:29.187Z,38.2
2017-02-24T04:12:02.092Z,38.2
2017-02-24T04:14:34.584Z,38.2
2017-02-24T04:17:07.074Z,38.2
2017-02-24T04:19:39.554Z,38.1
2017-02-24T04:22:12.049Z,38.2
2017-02-24T04:24:44.537Z,38.2
2017-02-24T04:27:17.054Z,38.2
2017-02-24T04:29:49.532Z,38.1
2017-02-24T04:32:22.212Z,38.1
2017-02-24T04:34:54.865Z,38
2017-02-24T04:37:27.406Z,38.1
2017-02-24T04:39:59.899Z,38.1
2017-02-24T04:42:32.390Z,38.1
2017-02-24T04:45:04.887Z,38
2017-02-24T04:47:37.378Z,38
2017-02-24T04:50:09.852Z,38
2017-02-24T04:52:42.538Z,38
2017-02-24T04:55:15.004Z,38
2017-02-24T04:57:47.909Z,38
2017-02-24T05:00:20.811Z,38
2017-02-24T05:02:53.321Z,38
2017-02-24T05:05:26.259Z,38
2017-02-24T05:07:59.196Z,38
2017-02-24T05:10:31.705Z,38
2017-02-24T05:13:04.619Z,38
2017-02-24T05:15:37.582Z,38.1
2017-02-24T05:18:10.482Z,38
2017-02-24T05:20:42.980Z,38
2017-02-24T05:23:15.513Z,38.1
2017-02-24T05:25:48.421Z,38.1
2017-02-24T05:28:20.908Z,38.1
2017-02-24T05:30:53.381Z,38.1
2017-02-24T05:33:26.304Z,38.1
2017-02-24T05:35:58.789Z,38.1
2017-02-24T05:38:31.257Z,38.1
2017-02-24T05:41:03.739Z,38.1
2017-02-24T05:43:36.203Z,38.1
2017-02-24T05:46:09.121Z,38.1
2017-02-24T05:48:42.022Z,38.4
2017-02-24T05:51:14.534Z,38.1
2017-02-24T05:53:47.047Z,38.1
2017-02-24T05:56:19.988Z,38.2
2017-02-24T05:58:52.486Z,38.3
2017-02-24T06:01:24.968Z,38.2
2017-02-24T06:03:57.892Z,38.3
2017-02-24T06:06:30.369Z,38.3
2017-02-24T06:09:02.863Z,38.4
2017-02-24T06:11:35.402Z,38.2
2017-02-24T06:14:07.887Z,38.2
2017-02-24T06:16:40.794Z,38.2
2017-02-24T06:19:13.755Z,38.3
2017-02-24T06:21:47.023Z,38.4
2017-02-24T06:24:19.594Z,38.3
2017-02-24T06:26:52.097Z,38.2
2017-02-24T06:29:25.006Z,38.3
2017-02-24T06:31:57.917Z,38.3
2017-02-24T06:34:30.392Z,38.4
2017-02-24T06:37:02.914Z,38.4
2017-02-24T06:39:35.815Z,38.5
2017-02-24T06:42:08.318Z,38.6
2017-02-24T06:44:41.239Z,38.5
2017-02-24T06:47:13.730Z,38.5
2017-02-24T06:49:46.253Z,38.6
2017-02-24T06:52:48.046Z,38.6
2017-02-24T06:55:30.702Z,38.6
2017-02-24T06:58:06.959Z,38.5
2017-02-24T07:00:40.167Z,38.6
2017-02-24T07:03:13.378Z,38.5
2017-02-24T07:05:46.443Z,38.7
2017-02-24T07:08:18.945Z,38.9
2017-02-24T07:10:51.890Z,38.8
2017-02-24T07:13:24.386Z,38.7
2017-02-24T07:15:56.909Z,38.8
2017-02-24T07:18:29.386Z,38.8
2017-02-24T07:21:01.910Z,38.8
2017-02-24T07:23:35.767Z,38.8
2017-02-24T07:26:14.240Z,38.8
2017-02-24T07:28:47.361Z,38.8
2017-02-24T07:31:19.872Z,38.8
2017-02-24T07:33:52.517Z,38.8
2017-02-24T07:36:26.284Z,38.8
2017-02-24T07:39:00.693Z,38.8
2017-02-24T07:41:37.370Z,38.8
2017-02-24T07:44:15.713Z,38.9
2017-02-24T07:46:52.581Z,38.9
2017-02-24T07:49:35.023Z,39
2017-02-24T07:52:17.676Z,38.8
2017-02-24T07:54:52.184Z,38.5
2017-02-24T07:57:25.097Z,38.6
2017-02-24T07:59:57.597Z,38.8
2017-02-24T08:02:30.086Z,38.8
2017-02-24T08:05:02.580Z,38.8
2017-02-24T08:07:35.503Z,38.8
2017-02-24T08:10:07.983Z,38.9
2017-02-24T08:12:40.908Z,38.8
2017-02-24T08:15:13.415Z,38.9
2017-02-24T08:17:45.890Z,38.9
2017-02-24T08:20:18.363Z,38.8
2017-02-24T08:22:50.880Z,38.8
2017-02-24T08:25:23.370Z,38.7
2017-02-24T08:27:55.854Z,38.6
2017-02-24T08:30:28.348Z,38.4
2017-02-24T08:33:01.685Z,38.2
2017-02-24T08:35:34.180Z,38.2
2017-02-24T08:38:06.962Z,38.1
2017-02-24T08:40:39.441Z,38
2017-02-24T08:43:12.595Z,37.9
2017-02-24T08:45:45.481Z,37.9
2017-02-24T08:48:18.000Z,37.9
2017-02-24T08:50:50.660Z,37.8
2017-02-24T08:53:23.139Z,37.9
2017-02-24T08:55:56.655Z,37.9
2017-02-24T08:58:29.149Z,37.9
2017-02-24T09:01:02.061Z,38
2017-02-24T09:03:34.969Z,38
2017-02-24T09:06:07.451Z,38
2017-02-24T09:08:39.949Z,38
2017-02-24T09:11:13.282Z,38.1
2017-02-24T09:13:45.758Z,38.2
2017-02-24T09:16:18.244Z,38.2
2017-02-24T09:18:50.752Z,38.3
2017-02-24T09:21:23.257Z,38.2
2017-02-24T09:23:55.766Z,38.2
2017-02-24T09:26:28.244Z,38.3
2017-02-24T09:29:01.255Z,38.3
2017-02-24T09:31:34.148Z,38.3
2017-02-24T09:34:07.056Z,38.2
2017-02-24T09:36:39.535Z,38.2
2017-02-24T09:39:12.016Z,38.2
2017-02-24T09:41:44.517Z,38.2
2017-02-24T09:44:16.999Z,38.1
2017-02-24T09:46:49.487Z,38
2017-02-24T09:49:21.994Z,38
2017-02-24T09:51:54.469Z,38
2017-02-24T09:54:26.950Z,38
2017-02-24T09:56:59.450Z,38
2017-02-24T09:59:31.960Z,38
2017-02-24T10:02:04.450Z,38
2017-02-24T10:04:36.945Z,38
2017-02-24T10:07:09.446Z,38
2017-02-24T10:09:42.345Z,38.1
2017-02-24T10:12:14.852Z,38.1
2017-02-24T10:14:47.765Z,38.1
2017-02-24T10:17:21.097Z,38
2017-02-24T10:19:53.597Z,38.1
2017-02-24T10:22:26.509Z,38.1
2017-02-24T10:24:59.425Z,38.2
2017-02-24T10:27:32.314Z,38.2
2017-02-24T10:30:04.815Z,38.2
2017-02-24T10:32:37.734Z,38.3
2017-02-24T10:35:10.234Z,38.2
2017-02-24T10:37:42.736Z,38.2
2017-02-24T10:40:15.644Z,38.3
2017-02-24T10:42:48.127Z,38.2
2017-02-24T10:45:20.638Z,38.2
2017-02-24T10:47:53.112Z,38.2
2017-02-24T10:50:25.608Z,38.3
2017-02-24T10:52:58.095Z,38.2
2017-02-24T10:55:30.624Z,38.3
2017-02-24T10:58:03.134Z,38.3
2017-02-24T11:00:35.627Z,38.3
2017-02-24T11:03:08.114Z,38.2
2017-02-24T11:05:40.645Z,38.3
2017-02-24T11:08:13.154Z,38.2
2017-02-24T11:10:46.060Z,38.2
2017-02-24T11:13:18.947Z,38.2
2017-02-24T11:15:51.432Z,38.1
2017-02-24T11:18:23.925Z,38.2
2017-02-24T11:20:56.423Z,38.2
2017-02-24T11:23:28.903Z,38.2
2017-02-24T11:26:01.377Z,38.2
2017-02-24T11:28:34.309Z,38.3
2017-02-24T11:31:07.231Z,38.2
2017-02-24T11:33:39.729Z,38.2
2017-02-24T11:36:12.660Z,38.1
2017-02-24T11:38:45.149Z,38.2
2017-02-24T11:41:17.642Z,38.2
2017-02-24T11:43:50.554Z,38.2
2017-02-24T11:46:23.062Z,38.2
2017-02-24T11:48:55.596Z,38.2
2017-02-24T11:51:28.106Z,38.2
2017-02-24T11:54:00.611Z,38.1
2017-02-24T11:56:33.105Z,38.2
2017-02-24T11:59:05.612Z,38.3
2017-02-24T12:01:38.116Z,38.3
2017-02-24T12:04:10.601Z,38.3
2017-02-24T12:06:43.144Z,38.4
2017-02-24T12:09:15.622Z,38.4
2017-02-24T12:11:48.112Z,38.4
2017-02-24T12:14:20.607Z,38.4
2017-02-24T12:16:53.101Z,38.4
2017-02-24T12:19:25.588Z,38.4
2017-02-24T12:21:58.257Z,38.5
2017-02-24T12:24:31.994Z,38.4
2017-02-24T12:27:04.486Z,38.4
2017-02-24T12:29:36.967Z,38.4
2017-02-24T12:32:09.880Z,38.4
2017-02-24T12:34:43.229Z,38.4
2017-02-24T12:37:15.712Z,38.4
2017-02-24T12:39:48.635Z,38.4
2017-02-24T12:42:21.122Z,38.6
2017-02-24T12:44:53.639Z,38.6
2017-02-24T12:47:26.121Z,38.5
2017-02-24T12:49:58.611Z,38.2
2017-02-24T12:52:31.249Z,35.3
2017-02-24T12:55:03.743Z,35.6
2017-02-24T12:57:37.062Z,33.8
2017-02-24T13:00:09.971Z,34.4
2017-02-24T13:02:42.471Z,33.3
2017-02-24T13:05:15.488Z,34.2
2017-02-24T13:07:48.415Z,32.3
2017-02-24T13:10:20.891Z,32.8
2017-02-24T13:12:53.829Z,31.4
2017-02-24T13:15:26.350Z,31.2
2017-02-24T13:17:59.301Z,31.6
2017-02-24T13:20:31.809Z,31.9
2017-02-24T13:23:04.354Z,32.1
2017-02-24T13:25:36.843Z,32.3
2017-02-24T13:28:09.399Z,30.8
2017-02-24T13:30:41.902Z,30.5
2017-02-24T13:33:14.856Z,30.2
2017-02-24T13:35:47.376Z,30.2
2017-02-24T13:38:19.946Z,30.1
2017-02-24T13:40:52.643Z,30
2017-02-24T13:43:25.563Z,29.9
2017-02-24T13:45:58.536Z,29.5
2017-02-24T13:48:31.037Z,29.3
2017-02-24T13:51:03.528Z,29
2017-02-24T13:53:36.092Z,28.7
2017-02-24T13:56:09.052Z,28.8
2017-02-24T13:58:41.998Z,28.5
2017-02-24T14:01:14.901Z,28.4
2017-02-24T14:03:47.852Z,28.1
2017-02-24T14:06:20.818Z,28.1
2017-02-24T14:08:53.475Z,28.2
2017-02-24T14:11:25.972Z,27.9
2017-02-24T14:13:58.902Z,27.9
2017-02-24T14:16:31.828Z,27.8
2017-02-24T14:19:04.318Z,29.5
2017-02-24T14:21:36.853Z,28
2017-02-24T14:24:09.389Z,27.7
2017-02-24T14:26:41.889Z,28.5
2017-02-24T14:29:14.829Z,27.5
2017-02-24T14:31:47.753Z,26.9
2017-02-24T14:34:20.295Z,26.9
2017-02-24T14:36:52.777Z,26.9
2017-02-24T14:39:25.792Z,26.8
2017-02-24T14:41:58.684Z,27.1
2017-02-24T14:44:31.643Z,27
2017-02-24T14:47:04.133Z,26.7
2017-02-24T14:49:36.624Z,26.4
2017-02-24T14:52:09.122Z,26.2
2017-02-24T14:54:41.764Z,26.3
2017-02-24T14:57:14.254Z,26.4
2017-02-24T14:59:46.760Z,26.3
2017-02-24T15:02:19.283Z,26.2
2017-02-24T15:04:52.215Z,26.2
2017-02-24T15:07:24.720Z,26.2
2017-02-24T15:09:57.198Z,26.3
2017-02-24T15:12:30.177Z,26.3
2017-02-24T15:15:03.100Z,26.4
2017-02-24T15:17:35.609Z,26.4
2017-02-24T15:20:08.565Z,26.3
2017-02-24T15:22:41.785Z,26.5
2017-02-24T15:25:14.294Z,26.5
2017-02-24T15:27:46.832Z,26.6
2017-02-24T15:30:19.319Z,26.7
2017-02-24T15:32:51.834Z,26.8
2017-02-24T15:35:24.321Z,26.9
2017-02-24T15:37:56.821Z,26.9
2017-02-24T15:40:29.326Z,26.9
2017-02-24T15:43:02.274Z,27.2
2017-02-24T15:45:34.774Z,27.2
2017-02-24T15:48:07.311Z,27.4
2017-02-24T15:50:39.814Z,27.5
2017-02-24T15:53:12.322Z,27.6
2017-02-24T15:55:44.810Z,27.9
2017-02-24T15:58:17.296Z,27.9
2017-02-24T16:00:49.875Z,28.1
2017-02-24T16:03:22.371Z,28.6
2017-02-24T16:05:55.271Z,29.5
2017-02-24T16:08:28.177Z,29.9
2017-02-24T16:11:00.686Z,30.4
2017-02-24T16:13:33.584Z,30.6
2017-02-24T16:16:06.167Z,30.4
2017-02-24T16:18:38.659Z,30.1
2017-02-24T16:21:11.582Z,30.6
2017-02-24T16:23:44.066Z,31.1
2017-02-24T16:26:16.564Z,31.1
2017-02-24T16:28:49.485Z,31.1
2017-02-24T16:31:22.014Z,31.2
2017-02-24T16:33:54.920Z,31.2
2017-02-24T16:36:27.920Z,31.3
2017-02-24T16:39:00.502Z,31.5
2017-02-24T16:41:33.439Z,31.5
2017-02-24T16:44:06.359Z,31.5
2017-02-24T16:46:38.838Z,31.7
2017-02-24T16:49:11.343Z,31.7
2017-02-24T16:51:44.011Z,31.7
2017-02-24T16:54:16.494Z,31.8
2017-02-24T16:57:04.053Z,31.7
2017-02-24T16:59:36.744Z,31.9
2017-02-24T17:02:09.363Z,31.8
2017-02-24T17:04:41.860Z,31.8
2017-02-24T17:07:15.722Z,31.9
2017-02-24T17:09:48.234Z,32
2017-02-24T17:12:20.740Z,32.2
2017-02-24T17:14:53.246Z,32.2
2017-02-24T17:17:26.214Z,32.3
2017-02-24T17:19:58.720Z,32.4
2017-02-24T17:22:31.305Z,32.4
2017-02-24T17:25:03.801Z,32.6
2017-02-24T17:27:36.710Z,32.7
2017-02-24T17:30:09.203Z,32.7
2017-02-24T17:32:41.703Z,32.8
2017-02-24T17:35:14.228Z,32.8
2017-02-24T17:37:46.711Z,32.8
2017-02-24T17:40:19.642Z,32.8
2017-02-24T17:42:52.146Z,32.7
2017-02-24T17:45:25.080Z,32.7
2017-02-24T17:47:58.417Z,32.8
2017-02-24T17:50:31.337Z,32.7
2017-02-24T17:53:03.835Z,32.7
2017-02-24T17:55:36.776Z,32.7
2017-02-24T17:58:09.269Z,32.7
2017-02-24T18:00:41.762Z,32.7
2017-02-24T18:03:14.265Z,32.8
2017-02-24T18:05:46.773Z,32.8
2017-02-24T18:08:19.282Z,32.8
2017-02-24T18:10:51.968Z,32.8
2017-02-24T18:13:24.463Z,32.8
2017-02-24T18:15:57.371Z,33
2017-02-24T18:18:29.874Z,33.1
2017-02-24T18:21:02.368Z,33.2
2017-02-24T18:23:34.870Z,33.2
2017-02-24T18:26:07.783Z,33.4
2017-02-24T18:28:40.692Z,33.5
2017-02-24T18:31:13.204Z,33.3
2017-02-24T18:33:45.699Z,33.4
2017-02-24T18:36:18.202Z,33.5
2017-02-24T18:38:51.217Z,33.6
2017-02-24T18:41:24.117Z,33.6
2017-02-24T18:43:56.636Z,33.5
2017-02-24T18:46:29.132Z,33.7
2017-02-24T18:49:01.600Z,33.7
2017-02-24T18:51:34.085Z,33.9
2017-02-24T18:54:06.582Z,33.9
2017-02-24T18:56:39.072Z,34
2017-02-24T18:59:11.573Z,34
2017-02-24T19:01:44.473Z,34
2017-02-24T19:04:17.009Z,34
2017-02-24T19:06:49.497Z,34.1
2017-02-24T19:09:22.399Z,34
2017-02-24T19:11:54.902Z,34
2017-02-24T19:14:27.402Z,34
2017-02-24T19:16:59.884Z,34
2017-02-24T19:19:32.790Z,34
2017-02-24T19:22:05.298Z,34.1
2017-02-24T19:24:37.981Z,34.1
2017-02-24T19:27:10.453Z,34.1
2017-02-24T19:29:42.940Z,34.1
2017-02-24T19:32:15.870Z,34.1
2017-02-24T19:34:48.351Z,34
2017-02-24T19:37:20.835Z,34.1
2017-02-24T19:39:53.315Z,34.2
2017-02-24T19:42:25.809Z,34
2017-02-24T19:44:58.514Z,34
2017-02-24T19:47:31.015Z,34.2
2017-02-24T19:50:03.546Z,34.3
2017-02-24T19:52:36.494Z,34.2
2017-02-24T19:55:09.420Z,34.3
2017-02-24T19:57:41.908Z,34.3
2017-02-24T20:00:14.834Z,34.3
2017-02-24T20:02:47.752Z,34.3
2017-02-24T20:05:20.260Z,34.4
2017-02-24T20:07:52.752Z,34.5
2017-02-24T20:10:25.281Z,34.5
2017-02-24T20:12:57.801Z,34.6
2017-02-24T20:15:30.309Z,34.5
2017-02-24T20:18:02.786Z,34.5
2017-02-24T20:20:35.715Z,34.5
2017-02-24T20:23:08.639Z,34.5
2017-02-24T20:25:41.769Z,34.5
2017-02-24T20:28:14.259Z,34.5
2017-02-24T20:30:46.742Z,34.5
2017-02-24T20:33:19.228Z,34.4
2017-02-24T20:35:51.727Z,34.4
2017-02-24T20:38:24.215Z,34.4
2017-02-24T20:40:56.700Z,34.4
2017-02-24T20:43:29.211Z,34.4
2017-02-24T20:46:02.157Z,34.4
2017-02-24T20:48:34.662Z,34.4
2017-02-24T20:51:07.139Z,34.4
2017-02-24T20:53:40.051Z,34.4
2017-02-24T20:56:12.553Z,34.5
2017-02-24T20:58:45.063Z,34.5
2017-02-24T21:01:17.548Z,34.6
2017-02-24T21:03:50.027Z,34.6
2017-02-24T21:06:22.524Z,34.6
2017-02-24T21:08:55.027Z,34.6
2017-02-24T21:11:27.516Z,34.7
2017-02-24T21:14:00.021Z,34.7
2017-02-24T21:16:32.949Z,34.7
2017-02-24T21:19:05.461Z,34.7
2017-02-24T21:21:37.951Z,34.7
2017-02-24T21:24:10.862Z,34.7
2017-02-24T21:26:43.380Z,34.7
2017-02-24T21:29:15.880Z,34.8
2017-02-24T21:31:48.360Z,34.8
2017-02-24T21:34:20.849Z,34.8
2017-02-24T21:36:53.340Z,34.8
2017-02-24T21:39:25.824Z,34.8
2017-02-24T21:41:58.733Z,34.8
2017-02-24T21:44:31.648Z,34.9
2017-02-24T21:47:04.568Z,34.8
2017-02-24T21:49:37.470Z,34.9
2017-02-24T21:52:09.967Z,34.9
2017-02-24T21:54:42.453Z,34.8
2017-02-24T21:57:14.961Z,34.9
2017-02-24T21:59:47.453Z,34.8
2017-02-24T22:02:19.931Z,34.9
2017-02-24T22:04:52.423Z,34.9
2017-02-24T22:07:25.518Z,34.9
2017-02-24T22:09:58.854Z,34.8
2017-02-24T22:12:31.763Z,34.8
2017-02-24T22:15:04.243Z,34.8
2017-02-24T22:17:36.723Z,34.8
2017-02-24T22:20:09.209Z,34.8
2017-02-24T22:22:41.696Z,34.8
2017-02-24T22:25:14.178Z,34.8
2017-02-24T22:27:47.082Z,34.8
2017-02-24T22:30:20.021Z,34.7
2017-02-24T22:32:52.502Z,34.8
2017-02-24T22:35:24.973Z,34.7
2017-02-24T22:37:57.873Z,34.7
2017-02-24T22:40:30.800Z,34.8
2017-02-24T22:43:03.280Z,34.7
2017-02-24T22:45:35.789Z,34.8
2017-02-24T22:48:08.292Z,34.8
2017-02-24T22:50:40.796Z,34.8
2017-02-24T22:53:13.289Z,34.8
2017-02-24T22:55:45.801Z,34.8
2017-02-24T22:58:18.299Z,34.8
2017-02-24T23:00:51.650Z,34.8
2017-02-24T23:03:24.984Z,34.8
2017-02-24T23:05:57.479Z,34.8
2017-02-24T23:08:30.393Z,34.9
2017-02-24T23:11:02.884Z,34.8
2017-02-24T23:13:35.786Z,34.9
2017-02-24T23:16:08.287Z,34.9
2017-02-24T23:18:40.788Z,35
2017-02-24T23:21:13.301Z,34.8
2017-02-24T23:23:45.808Z,34.8
2017-02-24T23:26:18.295Z,34.9
2017-02-24T23:28:50.822Z,34.9
2017-02-24T23:31:23.309Z,34.9
2017-02-24T23:33:55.805Z,34.9
2017-02-24T23:36:28.711Z,34.9
2017-02-24T23:39:01.228Z,34.8
2017-02-24T23:41:34.119Z,34.8
2017-02-24T23:44:06.624Z,34.8
2017-02-24T23:46:39.117Z,34.8
2017-02-24T23:49:11.617Z,34.8
2017-02-24T23:51:44.103Z,34.8
2017-02-24T23:54:16.601Z,34.8
2017-02-24T23:56:49.941Z,34.8
2017-02-24T23:59:22.847Z,34.9
